Time;durP1;ratioP1;P1;durP2;ratioP2;P2;SDS_P1;SDS_P2;PMS_P1;PMS_P2;Temp;Humidity;BMP_temperature;BMP_pressure;BME280_temperature;BME280_humidity;BME280_pressure;Samples;Min_cycle;Max_cycle;Signal;HPM_P1;HPM_P2
2023/04/21 00:18:30;;;;;;;;;;;12.00;93.50;;;;;;6168591;23;19928;-96
2023/04/21 04:23:52;;;;;;;;;;;11.80;91.30;;;;;;6155932;23;19926;31
2023/04/21 04:26:21;;;;;;;;;;;11.70;91.70;;;;;;6146780;23;19927;-96
2023/04/21 04:28:50;;;;;;;;;;;11.70;91.40;;;;;;6150681;23;19953;-96
2023/04/21 04:31:24;;;;;;;;;;;11.80;91.60;;;;;;6150762;23;19905;-96
2023/04/21 04:33:51;;;;;;;;;;;11.80;91.50;;;;;;6127379;23;19909;-96
2023/04/21 04:36:29;;;;;;;;;;;11.70;91.40;;;;;;6124255;23;19905;-96
2023/04/21 04:39:16;;;;;;;;;;;11.70;91.40;;;;;;6124681;23;19980;-96
2023/04/21 04:42:19;;;;;;;;;;;11.80;91.00;;;;;;6123812;23;19905;-96
2023/04/21 04:45:00;;;;;;;;;;;11.80;91.00;;;;;;6096207;23;19965;-96
2023/04/21 04:47:32;;;;;;;;;;;11.80;90.90;;;;;;6100173;23;19894;-96
2023/04/21 04:50:10;;;;;;;;;;;11.80;90.90;;;;;;6123881;23;19901;-96
2023/04/21 04:52:45;;;;;;;;;;;11.80;90.80;;;;;;6122218;23;19961;-96
2023/04/21 04:55:13;;;;;;;;;;;11.80;90.90;;;;;;6121838;23;19909;-96
2023/04/21 04:57:40;;;;;;;;;;;11.90;90.90;;;;;;6121504;23;19933;-96
2023/04/21 05:00:10;;;;;;;;;;;11.90;90.80;;;;;;6122178;23;19913;-96
2023/04/21 05:02:39;;;;;;;;;;;11.90;90.80;;;;;;6124084;23;19910;-96
2023/04/21 05:05:07;;;;;;;;;;;11.90;90.70;;;;;;6124151;23;19909;-96
2023/04/21 05:07:53;;;;;;;;;;;12.00;90.70;;;;;;6124133;23;19953;-96
2023/04/21 05:10:24;;;;;;;;;;;12.00;90.70;;;;;;6120046;23;19917;-96
2023/04/21 05:13:01;;;;;;;;;;;12.10;90.60;;;;;;6122661;23;19917;-96
2023/04/21 05:15:31;;;;;;;;;;;12.10;90.60;;;;;;6122408;23;19913;-96
2023/04/21 05:17:59;;;;;;;;;;;12.10;90.60;;;;;;6124075;23;19913;-96
2023/04/21 05:20:31;;;;;;;;;;;12.10;90.50;;;;;;6123410;23;19916;-96
2023/04/21 05:23:02;;;;;;;;;;;12.10;90.50;;;;;;6124028;23;19913;-96
2023/04/21 05:25:38;;;;;;;;;;;12.10;90.70;;;;;;6122451;23;19928;-96
2023/04/21 05:28:05;;;;;;;;;;;12.20;90.80;;;;;;6074939;23;19897;-96
2023/04/21 05:30:32;;;;;;;;;;;12.20;91.00;;;;;;6096463;23;19912;-96
2023/04/21 05:33:13;;;;;;;;;;;12.20;91.00;;;;;;6121631;23;19889;-96
2023/04/21 05:35:39;;;;;;;;;;;12.10;91.30;;;;;;6093005;23;19909;-96
2023/04/21 05:38:05;;;;;;;;;;;12.00;91.40;;;;;;6092916;23;19914;-96
2023/04/21 05:40:34;;;;;;;;;;;12.10;91.30;;;;;;6095010;23;19936;-96
2023/04/21 05:43:05;;;;;;;;;;;12.10;91.50;;;;;;6095532;23;19912;-96
2023/04/21 05:45:31;;;;;;;;;;;12.20;91.40;;;;;;6095305;23;19913;-96
2023/04/21 05:47:57;;;;;;;;;;;12.20;91.30;;;;;;6090922;23;19905;-96
2023/04/21 05:50:25;;;;;;;;;;;12.30;91.00;;;;;;6115959;23;19905;-96
2023/04/21 05:52:51;;;;;;;;;;;12.40;91.10;;;;;;6090910;23;20244;-96
2023/04/21 05:55:17;;;;;;;;;;;12.40;91.00;;;;;;6089573;23;19976;-96
2023/04/21 05:57:43;;;;;;;;;;;12.40;91.10;;;;;;6091151;23;19912;-96
2023/04/21 06:00:13;;;;;;;;;;;12.50;91.10;;;;;;6117188;23;19905;-96
2023/04/21 06:02:41;;;;;;;;;;;12.50;90.90;;;;;;6099729;23;19988;-96
2023/04/21 06:05:07;;;;;;;;;;;12.60;90.90;;;;;;6076087;23;19897;-96
2023/04/21 06:07:37;;;;;;;;;;;12.60;91.10;;;;;;6095170;23;19906;-96
2023/04/21 06:10:03;;;;;;;;;;;12.80;90.90;;;;;;6119276;23;19905;-96
2023/04/21 06:12:32;;;;;;;;;;;12.90;90.80;;;;;;6095920;23;19889;-96
2023/04/21 06:14:58;;;;;;;;;;;13.10;90.40;;;;;;6097325;23;19911;-96
2023/04/21 06:17:26;;;;;;;;;;;13.30;89.80;;;;;;6097366;23;19906;-96
2023/04/21 06:19:52;;;;;;;;;;;13.40;89.30;;;;;;6094886;23;19945;-96
2023/04/21 06:22:22;;;;;;;;;;;13.50;88.70;;;;;;6094815;23;19912;-96
2023/04/21 06:24:48;;;;;;;;;;;13.60;88.30;;;;;;6090774;23;19917;-96
2023/04/21 06:27:15;;;;;;;;;;;13.70;87.70;;;;;;6092689;23;19905;-96
2023/04/21 06:29:44;;;;;;;;;;;13.60;86.80;;;;;;6116273;23;20008;-96
2023/04/21 06:32:10;;;;;;;;;;;13.70;87.20;;;;;;6093333;23;19913;-96
2023/04/21 06:34:43;;;;;;;;;;;13.90;86.70;;;;;;6095330;23;19913;-96
2023/04/21 06:37:09;;;;;;;;;;;13.90;86.50;;;;;;6094428;23;19905;-96
2023/04/21 06:39:34;;;;;;;;;;;14.00;85.90;;;;;;6080812;23;20238;-96
2023/04/21 06:42:01;;;;;;;;;;;14.00;86.00;;;;;;6077803;23;19912;-96
2023/04/21 06:44:27;;;;;;;;;;;14.10;85.80;;;;;;6075753;23;19905;-96
2023/04/21 06:46:52;;;;;;;;;;;14.10;85.30;;;;;;6101827;23;19905;-96
2023/04/21 06:49:18;;;;;;;;;;;14.10;85.00;;;;;;6098690;23;20000;-96
2023/04/21 06:51:43;;;;;;;;;;;14.20;84.50;;;;;;6100396;23;19964;-96
2023/04/21 06:54:09;;;;;;;;;;;14.30;84.70;;;;;;6099738;23;20216;-96
2023/04/21 06:56:35;;;;;;;;;;;14.40;84.30;;;;;;6098141;23;19936;-96
2023/04/21 06:59:00;;;;;;;;;;;14.60;84.50;;;;;;6098580;23;19984;-96
2023/04/21 07:01:26;;;;;;;;;;;14.60;83.60;;;;;;6099477;23;19905;-96
2023/04/21 07:03:51;;;;;;;;;;;14.80;82.90;;;;;;6074609;23;20216;-96
2023/04/21 07:06:17;;;;;;;;;;;14.80;82.70;;;;;;6077883;23;20279;-96
2023/04/21 07:08:46;;;;;;;;;;;14.90;82.60;;;;;;6098460;23;19913;-96
2023/04/21 07:11:12;;;;;;;;;;;15.00;81.90;;;;;;6072119;23;19910;-96
2023/04/21 07:13:40;;;;;;;;;;;15.10;82.10;;;;;;6097393;23;19910;-97
2023/04/21 07:16:08;;;;;;;;;;;15.20;82.70;;;;;;6097804;23;19905;-96
2023/04/21 07:18:39;;;;;;;;;;;15.30;81.40;;;;;;6097533;23;19905;-96
2023/04/21 07:21:07;;;;;;;;;;;15.30;81.70;;;;;;6098904;23;19898;-96
2023/04/21 07:23:40;;;;;;;;;;;15.30;81.50;;;;;;6097643;23;19912;-96
2023/04/21 07:26:07;;;;;;;;;;;15.30;81.40;;;;;;6088616;23;19919;-96
2023/04/21 07:28:33;;;;;;;;;;;15.30;81.40;;;;;;6091784;23;19906;-96
2023/04/21 07:31:01;;;;;;;;;;;15.30;81.90;;;;;;6090285;23;20279;-96
2023/04/21 07:33:27;;;;;;;;;;;15.30;81.40;;;;;;6085552;23;19982;-96
2023/04/21 07:35:54;;;;;;;;;;;15.30;81.80;;;;;;6113197;23;19949;-96
2023/04/21 07:38:20;;;;;;;;;;;15.50;82.10;;;;;;6094042;23;19905;-96
2023/04/21 07:40:46;;;;;;;;;;;15.60;81.10;;;;;;6091793;23;19951;-96
2023/04/21 07:43:12;;;;;;;;;;;15.70;80.60;;;;;;6086937;23;19906;-96
2023/04/21 07:45:37;;;;;;;;;;;15.80;80.80;;;;;;6100438;23;19905;-96
2023/04/21 07:48:05;;;;;;;;;;;16.00;80.90;;;;;;6078535;23;19906;-96
2023/04/21 07:50:31;;;;;;;;;;;16.00;79.70;;;;;;6087830;23;19905;-96
2023/04/21 07:52:56;;;;;;;;;;;16.20;79.30;;;;;;6090663;23;20397;-96
2023/04/21 07:55:22;;;;;;;;;;;16.30;79.50;;;;;;6115757;23;20245;-96
2023/04/21 07:57:50;;;;;;;;;;;16.40;78.60;;;;;;6091980;23;19951;-96
2023/04/21 08:00:16;;;;;;;;;;;16.50;75.90;;;;;;6118283;23;19909;-96
2023/04/21 08:02:43;;;;;;;;;;;16.60;77.10;;;;;;6094369;23;19957;-96
2023/04/21 08:05:09;;;;;;;;;;;16.60;77.30;;;;;;6094409;23;19905;-96
2023/04/21 08:07:36;;;;;;;;;;;16.70;77.00;;;;;;6121400;23;19991;-96
2023/04/21 08:10:06;;;;;;;;;;;16.80;76.40;;;;;;6097743;23;19950;-96
2023/04/21 08:12:37;;;;;;;;;;;16.90;76.50;;;;;;6075999;23;20572;-96
2023/04/21 08:15:11;;;;;;;;;;;17.10;74.00;;;;;;6124710;23;19909;-96
2023/04/21 08:17:44;;;;;;;;;;;17.10;73.80;;;;;;6099698;23;19917;-96
2023/04/21 08:20:13;;;;;;;;;;;17.20;73.50;;;;;;6099122;23;19890;-96
2023/04/21 08:22:44;;;;;;;;;;;17.20;72.10;;;;;;6123397;23;19979;-96
2023/04/21 08:25:21;;;;;;;;;;;17.30;72.40;;;;;;6123065;23;19908;-96
2023/04/21 08:27:49;;;;;;;;;;;17.20;72.50;;;;;;6098200;23;19893;-96
2023/04/21 08:30:17;;;;;;;;;;;17.10;71.60;;;;;;6099205;23;19933;-96
2023/04/21 08:32:43;;;;;;;;;;;17.30;71.80;;;;;;6097573;23;19941;-96
2023/04/21 08:35:14;;;;;;;;;;;17.30;71.80;;;;;;6097310;23;19898;-96
2023/04/21 08:37:41;;;;;;;;;;;17.20;72.50;;;;;;6098058;23;19909;-96
2023/04/21 08:40:07;;;;;;;;;;;17.10;71.50;;;;;;6097743;23;19956;-96
2023/04/21 08:42:33;;;;;;;;;;;17.20;72.70;;;;;;6079090;23;19905;-96
2023/04/21 08:44:59;;;;;;;;;;;16.90;73.30;;;;;;6076012;23;19911;-96
2023/04/21 08:47:25;;;;;;;;;;;16.60;74.90;;;;;;6075091;23;19933;-96
2023/04/21 08:49:50;;;;;;;;;;;16.40;76.10;;;;;;6103531;23;19905;-96
2023/04/21 08:52:20;;;;;;;;;;;16.40;76.20;;;;;;6111379;23;20344;-96
2023/04/21 08:54:50;;;;;;;;;;;16.40;76.10;;;;;;6093368;23;19909;-96
2023/04/21 08:57:17;;;;;;;;;;;16.50;76.00;;;;;;6095011;23;19916;-96
2023/04/21 08:59:47;;;;;;;;;;;16.50;75.60;;;;;;6095106;23;19929;-96
2023/04/21 09:02:17;;;;;;;;;;;16.40;75.10;;;;;;6071762;23;19932;-96
2023/04/21 09:04:47;;;;;;;;;;;16.40;76.60;;;;;;6095421;23;19912;-96
2023/04/21 09:07:33;;;;;;;;;;;16.40;76.90;;;;;;6096588;23;19905;-96
2023/04/21 09:10:00;;;;;;;;;;;16.40;77.40;;;;;;6120373;23;19925;-96
2023/04/21 09:12:27;;;;;;;;;;;16.40;77.50;;;;;;6097627;23;19925;-96
2023/04/21 09:15:07;;;;;;;;;;;16.40;77.80;;;;;;6097308;23;19933;-96
2023/04/21 09:17:35;;;;;;;;;;;16.40;78.30;;;;;;6082104;23;20267;-96
2023/04/21 09:20:15;;;;;;;;;;;16.30;78.30;;;;;;6098718;23;20351;-95
2023/04/21 09:22:40;;;;;;;;;;;16.30;77.80;;;;;;6072856;23;19909;-95
2023/04/21 09:25:06;;;;;;;;;;;16.30;78.30;;;;;;6072346;23;19920;-96
2023/04/21 09:27:35;;;;;;;;;;;16.30;78.30;;;;;;6099271;23;19928;-96
2023/04/21 09:30:05;;;;;;;;;;;16.30;78.90;;;;;;6104951;23;19913;-96
2023/04/21 09:32:37;;;;;;;;;;;16.50;77.60;;;;;;6109399;23;19921;-96
2023/04/21 09:35:05;;;;;;;;;;;16.60;76.70;;;;;;6087082;23;19992;-96
2023/04/21 09:37:32;;;;;;;;;;;16.60;76.80;;;;;;6090978;23;19928;-96
2023/04/21 09:39:58;;;;;;;;;;;16.70;75.20;;;;;;6094449;23;20245;-96
2023/04/21 09:42:28;;;;;;;;;;;16.70;75.30;;;;;;6093134;23;19974;-96
2023/04/21 09:45:04;;;;;;;;;;;16.80;74.50;;;;;;6092689;23;19949;-96
2023/04/21 09:47:33;;;;;;;;;;;16.80;76.10;;;;;;6091023;23;19905;-96
2023/04/21 09:49:59;;;;;;;;;;;16.90;75.60;;;;;;6090330;23;19905;-96
2023/04/21 09:52:27;;;;;;;;;;;17.00;75.00;;;;;;6087147;23;19905;-96
2023/04/21 09:54:59;;;;;;;;;;;17.10;75.80;;;;;;6105817;23;19909;-96
2023/04/21 09:57:26;;;;;;;;;;;17.30;75.40;;;;;;6081229;23;19905;-96
2023/04/21 09:59:54;;;;;;;;;;;17.50;74.20;;;;;;6084250;23;19906;-96
2023/04/21 10:02:23;;;;;;;;;;;17.80;71.70;;;;;;6107494;23;19928;-96
2023/04/21 10:04:49;;;;;;;;;;;17.80;67.50;;;;;;6111089;23;19949;-96
2023/04/21 10:07:15;;;;;;;;;;;17.90;70.00;;;;;;6107413;23;19905;-96
2023/04/21 10:09:44;;;;;;;;;;;18.00;67.80;;;;;;6082324;23;19909;-96
2023/04/21 10:12:10;;;;;;;;;;;18.20;68.10;;;;;;6107695;23;19912;-96
2023/04/21 10:14:35;;;;;;;;;;;18.30;67.90;;;;;;6108164;23;20066;-96
2023/04/21 10:17:05;;;;;;;;;;;18.40;65.30;;;;;;6106387;23;19928;-96
2023/04/21 10:19:38;;;;;;;;;;;18.60;67.80;;;;;;6103556;23;20342;-96
2023/04/21 10:22:08;;;;;;;;;;;18.60;67.70;;;;;;6106592;23;20387;-96
2023/04/21 10:24:41;;;;;;;;;;;18.70;66.00;;;;;;6108260;23;19938;-96
2023/04/21 10:27:10;;;;;;;;;;;18.80;65.60;;;;;;6084023;23;19921;-96
2023/04/21 10:29:36;;;;;;;;;;;18.60;64.70;;;;;;6085303;23;19937;-96
2023/04/21 10:32:02;;;;;;;;;;;18.40;64.40;;;;;;6108407;23;19913;-96
2023/04/21 10:34:33;;;;;;;;;;;18.30;65.90;;;;;;6107156;23;19912;-96
2023/04/21 10:36:59;;;;;;;;;;;18.40;65.80;;;;;;6080315;23;19929;-96
2023/04/21 10:39:25;;;;;;;;;;;18.60;64.40;;;;;;6079571;23;19910;-96
2023/04/21 10:41:50;;;;;;;;;;;18.60;65.80;;;;;;6101176;23;19906;-96
2023/04/21 10:44:16;;;;;;;;;;;18.50;62.90;;;;;;6073236;23;20290;-96
2023/04/21 10:46:46;;;;;;;;;;;18.50;64.90;;;;;;6073068;23;19906;-96
2023/04/21 10:49:25;;;;;;;;;;;18.40;64.40;;;;;;6073236;23;19952;-96
2023/04/21 10:51:57;;;;;;;;;;;18.20;65.70;;;;;;6099605;23;19905;-96
2023/04/21 10:54:26;;;;;;;;;;;18.30;66.70;;;;;;6099245;23;19909;-96
2023/04/21 10:56:55;;;;;;;;;;;18.40;65.00;;;;;;6097396;23;19911;-96
2023/04/21 10:59:21;;;;;;;;;;;18.60;63.90;;;;;;6098924;23;19905;-95
2023/04/21 11:01:47;;;;;;;;;;;18.60;64.70;;;;;;6098557;23;19905;-96
2023/04/21 11:04:13;;;;;;;;;;;18.70;66.60;;;;;;6099003;23;19933;-96
2023/04/21 11:06:38;;;;;;;;;;;18.80;65.00;;;;;;6097040;23;19952;-96
2023/04/21 11:09:04;;;;;;;;;;;18.70;65.30;;;;;;6097006;23;19941;-95
2023/04/21 11:11:30;;;;;;;;;;;18.60;67.00;;;;;;6072935;23;19906;-96
2023/04/21 11:13:58;;;;;;;;;;;18.60;66.10;;;;;;6072972;23;19967;-96
2023/04/21 11:16:24;;;;;;;;;;;18.70;63.80;;;;;;6073017;23;19905;-96
2023/04/21 11:18:50;;;;;;;;;;;18.70;63.70;;;;;;6098830;23;19906;-96
2023/04/21 11:21:17;;;;;;;;;;;18.80;64.50;;;;;;6072763;23;19909;-96
2023/04/21 11:23:48;;;;;;;;;;;18.90;62.20;;;;;;6073190;23;19913;-96
2023/04/21 11:26:14;;;;;;;;;;;19.00;61.60;;;;;;6072657;23;19940;-96
2023/04/21 11:28:43;;;;;;;;;;;19.30;62.40;;;;;;6098238;23;20331;-95
2023/04/21 11:31:09;;;;;;;;;;;19.40;61.40;;;;;;6072491;23;19980;-96
2023/04/21 11:33:37;;;;;;;;;;;19.40;61.20;;;;;;6097949;23;19925;-94
2023/04/21 11:36:06;;;;;;;;;;;19.50;63.10;;;;;;6098304;23;19929;-95
2023/04/21 11:38:38;;;;;;;;;;;19.70;61.10;;;;;;6098367;23;19909;-95
2023/04/21 11:41:04;;;;;;;;;;;19.60;64.20;;;;;;6072722;23;19905;-95
2023/04/21 11:43:30;;;;;;;;;;;19.60;62.80;;;;;;6098713;23;20358;-94
2023/04/21 11:46:09;;;;;;;;;;;19.60;59.40;;;;;;6072568;23;19905;-96
2023/04/21 11:48:35;;;;;;;;;;;19.40;60.00;;;;;;6098739;23;19906;-94
2023/04/21 11:51:01;;;;;;;;;;;19.50;59.60;;;;;;6098231;23;20242;-95
2023/04/21 11:53:28;;;;;;;;;;;19.50;62.20;;;;;;6072320;23;19913;-94
2023/04/21 11:55:55;;;;;;;;;;;19.60;64.00;;;;;;6098145;23;19905;-95
2023/04/21 11:58:20;;;;;;;;;;;19.70;61.10;;;;;;6096131;23;20288;-95
2023/04/21 12:00:46;;;;;;;;;;;19.90;60.70;;;;;;6098063;23;20350;-95
2023/04/21 12:03:12;;;;;;;;;;;19.90;60.00;;;;;;6097687;23;19932;-95
2023/04/21 12:05:38;;;;;;;;;;;20.10;60.40;;;;;;6098132;23;19914;-94
2023/04/21 12:08:05;;;;;;;;;;;20.40;57.90;;;;;;6097564;23;19905;-94
2023/04/21 12:10:30;;;;;;;;;;;20.60;57.10;;;;;;6098014;23;19912;-94
2023/04/21 12:12:56;;;;;;;;;;;20.70;56.10;;;;;;6097859;23;19909;-94
2023/04/21 12:15:22;;;;;;;;;;;20.70;56.60;;;;;;6097783;23;19912;-95
2023/04/21 12:17:49;;;;;;;;;;;20.70;56.30;;;;;;6098007;23;19982;-96
2023/04/21 12:20:15;;;;;;;;;;;20.90;56.50;;;;;;6097903;23;19906;-94
2023/04/21 12:22:41;;;;;;;;;;;20.80;58.90;;;;;;6098337;23;19909;-93
2023/04/21 12:25:07;;;;;;;;;;;20.50;57.80;;;;;;6129216;23;20000;-95
2023/04/21 12:27:33;;;;;;;;;;;20.20;59.70;;;;;;6156880;23;19988;-94
2023/04/21 12:29:59;;;;;;;;;;;20.30;59.40;;;;;;6130235;23;19905;-95
2023/04/21 12:32:25;;;;;;;;;;;20.60;57.30;;;;;;6130173;23;19905;-94
2023/04/21 12:34:50;;;;;;;;;;;20.50;55.60;;;;;;6156335;23;19915;-93
2023/04/21 12:37:17;;;;;;;;;;;20.80;56.30;;;;;;6156501;23;19905;-94
2023/04/21 12:39:42;;;;;;;;;;;21.00;56.70;;;;;;6156525;23;19933;-94
2023/04/21 12:42:08;;;;;;;;;;;21.50;55.10;;;;;;6156550;23;19911;-94
2023/04/21 12:44:33;;;;;;;;;;;21.70;54.30;;;;;;6156311;23;19960;-95
2023/04/21 12:46:59;;;;;;;;;;;21.80;51.60;;;;;;6156171;23;19952;-93
2023/04/21 12:49:25;;;;;;;;;;;21.90;54.60;;;;;;6156037;23;19983;-93
2023/04/21 12:51:50;;;;;;;;;;;22.60;51.30;;;;;;6156254;23;19905;-94
2023/04/21 12:54:16;;;;;;;;;;;23.10;49.80;;;;;;6156298;23;19915;-94
2023/04/21 12:56:42;;;;;;;;;;;23.20;50.90;;;;;;6156159;23;19912;-94
2023/04/21 12:59:09;;;;;;;;;;;23.20;47.40;;;;;;6156257;23;19979;-94
2023/04/21 13:01:35;;;;;;;;;;;23.50;48.10;;;;;;6156310;23;19927;-94
2023/04/21 13:04:01;;;;;;;;;;;24.30;49.40;;;;;;6156370;23;19934;-94
2023/04/21 13:06:27;;;;;;;;;;;25.00;45.00;;;;;;6156424;23;20331;-95
2023/04/21 13:08:53;;;;;;;;;;;25.20;44.60;;;;;;6156351;23;19912;-94
2023/04/21 13:11:18;;;;;;;;;;;25.50;44.70;;;;;;6158001;23;19981;-94
2023/04/21 13:13:44;;;;;;;;;;;25.70;44.90;;;;;;6158731;23;20346;-96
2023/04/21 13:16:10;;;;;;;;;;;25.50;45.40;;;;;;6134541;23;19911;-96
2023/04/21 13:18:37;;;;;;;;;;;26.00;44.30;;;;;;6132210;23;19924;-94
2023/04/21 13:21:03;;;;;;;;;;;25.40;43.40;;;;;;6158379;23;19905;-94
2023/04/21 13:23:29;;;;;;;;;;;25.20;43.20;;;;;;6158328;23;19928;-94
2023/04/21 13:25:55;;;;;;;;;;;25.50;41.80;;;;;;6158198;23;19916;-94
2023/04/21 13:28:20;;;;;;;;;;;25.70;41.60;;;;;;6158163;23;19905;-95
2023/04/21 13:30:46;;;;;;;;;;;25.90;39.90;;;;;;6158354;23;20247;-94
2023/04/21 13:33:12;;;;;;;;;;;26.20;39.60;;;;;;6158144;23;20239;-94
2023/04/21 13:35:37;;;;;;;;;;;26.30;39.60;;;;;;6157646;23;20318;-95
2023/04/21 13:38:03;;;;;;;;;;;26.70;39.90;;;;;;6157718;23;20327;-95
2023/04/21 13:40:30;;;;;;;;;;;27.30;38.40;;;;;;6157795;23;19975;-95
2023/04/21 13:42:57;;;;;;;;;;;27.90;36.70;;;;;;6157934;23;19911;-95
2023/04/21 13:45:28;;;;;;;;;;;28.00;39.00;;;;;;6169375;23;19945;-97
2023/04/21 13:47:56;;;;;;;;;;;28.50;36.00;;;;;;6158240;23;19905;-96
2023/04/21 13:50:25;;;;;;;;;;;28.30;36.50;;;;;;6159263;23;19924;-96
2023/04/21 13:52:52;;;;;;;;;;;28.40;37.90;;;;;;6157923;23;19912;-96
2023/04/21 13:55:27;;;;;;;;;;;28.80;34.60;;;;;;6156491;23;19912;-96
2023/04/21 13:57:56;;;;;;;;;;;28.90;34.30;;;;;;6157757;23;19912;-96
2023/04/21 14:00:25;;;;;;;;;;;28.90;34.10;;;;;;6154478;23;19937;-97
2023/04/21 14:02:51;;;;;;;;;;;29.20;34.50;;;;;;6154145;23;19905;-96
2023/04/21 14:05:17;;;;;;;;;;;29.40;34.40;;;;;;6178959;23;19905;-96
2023/04/21 14:07:46;;;;;;;;;;;29.50;32.90;;;;;;6152705;23;19905;-96
2023/04/21 14:10:14;;;;;;;;;;;29.20;33.80;;;;;;6153648;23;19954;-96
2023/04/21 14:12:43;;;;;;;;;;;29.50;34.00;;;;;;6151236;23;19931;-96
2023/04/21 14:15:09;;;;;;;;;;;28.50;36.30;;;;;;6152247;23;19912;-96
2023/04/21 14:17:38;;;;;;;;;;;28.70;36.10;;;;;;6151682;23;19909;-96
2023/04/21 14:20:06;;;;;;;;;;;28.90;35.00;;;;;;6177065;23;20353;-97
2023/04/21 14:22:32;;;;;;;;;;;28.60;36.20;;;;;;6149575;23;19920;-96
2023/04/21 14:24:57;;;;;;;;;;;28.60;35.90;;;;;;6158580;23;19921;-96
2023/04/21 14:27:25;;;;;;;;;;;27.90;37.70;;;;;;6169425;23;19909;-96
2023/04/21 14:29:50;;;;;;;;;;;27.20;38.00;;;;;;6161621;23;20273;-96
2023/04/21 14:32:18;;;;;;;;;;;26.40;38.40;;;;;;6133958;23;19919;-96
2023/04/21 14:34:43;;;;;;;;;;;25.80;39.20;;;;;;6159827;23;19912;-96
2023/04/21 14:37:09;;;;;;;;;;;25.20;39.90;;;;;;6134002;23;19936;-96
2023/04/21 14:39:35;;;;;;;;;;;24.60;41.30;;;;;;6133740;23;19904;-96
2023/04/21 14:42:01;;;;;;;;;;;24.80;41.50;;;;;;6160846;23;19905;-96
2023/04/21 14:44:27;;;;;;;;;;;25.30;40.60;;;;;;6134936;23;19912;-96
2023/04/21 14:46:52;;;;;;;;;;;25.20;40.20;;;;;;6159949;23;19904;-96
2023/04/21 14:49:18;;;;;;;;;;;24.80;40.60;;;;;;6160028;23;20334;-96
2023/04/21 14:51:45;;;;;;;;;;;24.70;40.60;;;;;;6161557;23;20323;-96
2023/04/21 14:54:11;;;;;;;;;;;24.90;41.80;;;;;;6142528;23;19915;-96
2023/04/21 14:56:40;;;;;;;;;;;25.90;40.50;;;;;;6146257;23;19911;-96
2023/04/21 14:59:06;;;;;;;;;;;26.30;39.70;;;;;;6148278;23;19953;-96
2023/04/21 15:01:35;;;;;;;;;;;26.70;37.70;;;;;;6146683;23;19912;-96
2023/04/21 15:04:07;;;;;;;;;;;26.80;38.10;;;;;;6172822;23;19905;-96
2023/04/21 15:06:38;;;;;;;;;;;27.20;40.00;;;;;;6148320;23;19983;-96
2023/04/21 15:09:04;;;;;;;;;;;27.90;38.10;;;;;;6148209;23;19915;-96
2023/04/21 15:11:30;;;;;;;;;;;28.50;35.10;;;;;;6148678;23;19905;-96
2023/04/21 15:13:56;;;;;;;;;;;28.50;34.30;;;;;;6149979;23;19909;-96
2023/04/21 15:16:22;;;;;;;;;;;28.60;35.80;;;;;;6150576;23;19952;-96
2023/04/21 15:18:51;;;;;;;;;;;28.50;36.40;;;;;;6151776;23;19908;-96
2023/04/21 15:21:18;;;;;;;;;;;28.50;34.70;;;;;;6151760;23;19904;-96
2023/04/21 15:23:47;;;;;;;;;;;28.40;35.00;;;;;;6148010;23;19956;-96
2023/04/21 15:26:13;;;;;;;;;;;28.10;36.00;;;;;;6150688;23;19916;-96
2023/04/21 15:28:41;;;;;;;;;;;28.00;35.60;;;;;;6169931;23;19912;-96
2023/04/21 15:31:06;;;;;;;;;;;28.10;34.80;;;;;;6170316;23;19928;-96
2023/04/21 15:33:32;;;;;;;;;;;28.40;34.80;;;;;;6141344;23;19905;-96
2023/04/21 15:35:58;;;;;;;;;;;28.50;34.60;;;;;;6139396;23;19990;-97
2023/04/21 15:38:24;;;;;;;;;;;28.60;34.50;;;;;;6137110;23;19905;-96
2023/04/21 15:40:50;;;;;;;;;;;28.10;34.40;;;;;;6135013;23;20219;-96
2023/04/21 15:43:15;;;;;;;;;;;27.20;35.40;;;;;;6133469;23;20215;-96
2023/04/21 15:45:41;;;;;;;;;;;26.00;37.40;;;;;;6134038;23;20283;-96
2023/04/21 15:48:07;;;;;;;;;;;26.50;37.70;;;;;;6158593;23;19912;-96
2023/04/21 15:50:34;;;;;;;;;;;26.30;37.50;;;;;;6133961;23;19904;-96
2023/04/21 15:53:02;;;;;;;;;;;24.40;40.20;;;;;;6159376;23;19912;-96
2023/04/21 15:55:29;;;;;;;;;;;23.20;43.30;;;;;;6161604;23;19913;-96
2023/04/21 15:57:54;;;;;;;;;;;23.00;44.40;;;;;;6159930;23;19955;-96
2023/04/21 16:00:20;;;;;;;;;;;23.10;43.60;;;;;;6161171;23;19952;-96
2023/04/21 16:02:46;;;;;;;;;;;23.30;43.90;;;;;;6140669;23;19911;-96
2023/04/21 16:05:12;;;;;;;;;;;23.50;43.50;;;;;;6145303;23;19905;-96
2023/04/21 16:07:39;;;;;;;;;;;23.60;42.90;;;;;;6149251;23;19952;-96
2023/04/21 16:10:05;;;;;;;;;;;24.00;41.60;;;;;;6149862;23;19905;-96
2023/04/21 16:12:33;;;;;;;;;;;24.50;42.20;;;;;;6149105;23;19905;-96
2023/04/21 16:15:00;;;;;;;;;;;24.80;41.40;;;;;;6177416;23;19935;-96
2023/04/21 16:17:26;;;;;;;;;;;24.90;41.60;;;;;;6151932;23;19909;-96
2023/04/21 16:19:53;;;;;;;;;;;24.70;41.30;;;;;;6150789;23;19912;-96
2023/04/21 16:22:19;;;;;;;;;;;24.80;41.40;;;;;;6149715;23;19952;-96
2023/04/21 16:24:48;;;;;;;;;;;24.90;41.80;;;;;;6150609;23;20414;-96
2023/04/21 16:27:14;;;;;;;;;;;24.80;42.80;;;;;;6151967;23;19893;-96
2023/04/21 16:29:40;;;;;;;;;;;24.70;43.90;;;;;;6144347;23;19905;-96
2023/04/21 16:32:06;;;;;;;;;;;24.20;43.50;;;;;;6144529;23;20282;-96
2023/04/21 16:34:31;;;;;;;;;;;23.80;44.00;;;;;;6138287;23;19908;-96
2023/04/21 16:36:57;;;;;;;;;;;23.30;44.60;;;;;;6137640;23;19905;-96
2023/04/21 16:39:23;;;;;;;;;;;23.10;44.80;;;;;;6141262;23;19959;-96
2023/04/21 16:41:49;;;;;;;;;;;23.10;44.60;;;;;;6167453;23;19912;-96
2023/04/21 16:44:15;;;;;;;;;;;23.10;44.70;;;;;;6146373;23;20217;-96
2023/04/21 16:46:40;;;;;;;;;;;22.90;44.40;;;;;;6171861;23;20293;-96
2023/04/21 16:49:06;;;;;;;;;;;22.80;44.80;;;;;;6145982;23;19904;-96
2023/04/21 16:51:32;;;;;;;;;;;22.80;45.70;;;;;;6172133;23;19944;-96
2023/04/21 16:53:58;;;;;;;;;;;22.90;46.00;;;;;;6144713;23;19913;-96
2023/04/21 16:56:23;;;;;;;;;;;23.00;45.20;;;;;;6146518;23;19932;-96
2023/04/21 16:58:49;;;;;;;;;;;23.00;45.30;;;;;;6144939;23;19928;-96
2023/04/21 17:01:15;;;;;;;;;;;23.00;45.00;;;;;;6142442;23;19905;-96
2023/04/21 17:03:40;;;;;;;;;;;22.90;47.00;;;;;;6135459;23;19984;-96
2023/04/21 17:06:09;;;;;;;;;;;22.80;46.80;;;;;;6137011;23;19905;-96
2023/04/21 17:08:35;;;;;;;;;;;22.80;46.30;;;;;;6137201;23;19904;-96
2023/04/21 17:11:01;;;;;;;;;;;22.80;46.10;;;;;;6163633;23;19927;-96
2023/04/21 17:13:27;;;;;;;;;;;22.70;49.20;;;;;;6136620;23;19948;-96
2023/04/21 17:15:52;;;;;;;;;;;22.60;48.10;;;;;;6136644;23;19979;-96
2023/04/21 17:18:18;;;;;;;;;;;22.30;48.20;;;;;;6137263;23;19909;-96
2023/04/21 17:20:44;;;;;;;;;;;22.20;48.50;;;;;;6137368;23;19905;-96
2023/04/21 17:23:10;;;;;;;;;;;22.00;50.50;;;;;;6136944;23;19990;-96
2023/04/21 17:25:37;;;;;;;;;;;21.90;49.50;;;;;;6163734;23;19923;-96
2023/04/21 17:28:03;;;;;;;;;;;21.90;50.50;;;;;;6138688;23;19911;-96
2023/04/21 17:30:29;;;;;;;;;;;21.80;50.40;;;;;;6138688;23;19912;-96
2023/04/21 17:32:54;;;;;;;;;;;21.70;55.10;;;;;;6164022;23;19905;-96
2023/04/21 17:35:20;;;;;;;;;;;21.30;53.20;;;;;;6135788;23;19908;-96
2023/04/21 17:37:46;;;;;;;;;;;21.10;55.30;;;;;;6137025;23;19999;-96
2023/04/21 17:40:12;;;;;;;;;;;20.90;57.10;;;;;;6137796;23;19909;-96
2023/04/21 17:42:39;;;;;;;;;;;20.80;58.60;;;;;;6138145;23;19908;-96
2023/04/21 17:45:06;;;;;;;;;;;20.50;59.60;;;;;;6138093;23;19905;-96
2023/04/21 17:47:32;;;;;;;;;;;20.30;57.70;;;;;;6139577;23;19911;-96
2023/04/21 17:49:58;;;;;;;;;;;20.10;58.40;;;;;;6166808;23;20241;-96
2023/04/21 17:52:23;;;;;;;;;;;19.90;64.00;;;;;;6139954;23;19948;-96
2023/04/21 17:54:49;;;;;;;;;;;19.60;70.80;;;;;;6165312;23;20238;-96
2023/04/21 17:57:15;;;;;;;;;;;19.40;67.30;;;;;;6141954;23;19904;-96
2023/04/21 17:59:41;;;;;;;;;;;19.30;62.60;;;;;;6143788;23;19909;-96
2023/04/21 18:02:06;;;;;;;;;;;19.20;61.10;;;;;;6144752;23;19929;-96
2023/04/21 18:04:33;;;;;;;;;;;19.10;61.80;;;;;;6144864;23;19904;-96
2023/04/21 18:06:59;;;;;;;;;;;19.10;62.30;;;;;;6145556;23;19915;-96
2023/04/21 18:09:24;;;;;;;;;;;19.00;60.50;;;;;;6172244;23;19928;-96
2023/04/21 18:11:50;;;;;;;;;;;18.90;60.50;;;;;;6171624;23;19904;-96
2023/04/21 18:14:16;;;;;;;;;;;18.90;59.40;;;;;;6146000;23;19908;-96
2023/04/21 18:16:42;;;;;;;;;;;18.90;60.20;;;;;;6145577;23;19957;-96
2023/04/21 18:19:08;;;;;;;;;;;18.80;60.80;;;;;;6146352;23;19929;-96
2023/04/21 18:21:33;;;;;;;;;;;18.80;60.20;;;;;;6146695;23;19912;-96
2023/04/21 18:24:04;;;;;;;;;;;18.80;60.20;;;;;;6173397;23;19905;-96
2023/04/21 18:26:30;;;;;;;;;;;18.80;60.60;;;;;;6147601;23;19959;-96
2023/04/21 18:28:59;;;;;;;;;;;18.70;67.00;;;;;;6147942;23;19952;-96
2023/04/21 18:31:27;;;;;;;;;;;18.60;67.10;;;;;;6145730;23;19983;-96
2023/04/21 18:33:53;;;;;;;;;;;18.40;67.50;;;;;;6146059;23;19908;-96
2023/04/21 18:36:19;;;;;;;;;;;18.30;67.60;;;;;;6145985;23;19912;-96
2023/04/21 18:38:46;;;;;;;;;;;18.30;66.40;;;;;;6146879;23;19905;-96